sensor_id;sensor_type;location;lat;lon;timestamp;temperature;humidity
45549;DHT22;31270;48.328;10.096;2022-07-29T00:01:34;18.80;99.90
45549;DHT22;31270;48.328;10.096;2022-07-29T00:04:00;18.90;99.90
45549;DHT22;31270;48.328;10.096;2022-07-29T00:06:26;18.90;99.90
45549;DHT22;31270;48.328;10.096;2022-07-29T00:08:51;18.70;99.90
45549;DHT22;31270;48.328;10.096;2022-07-29T00:11:17;18.60;99.90
45549;DHT22;31270;48.328;10.096;2022-07-29T00:13:42;18.60;99.90
45549;DHT22;31270;48.328;10.096;2022-07-29T00:16:08;18.70;99.90
45549;DHT22;31270;48.328;10.096;2022-07-29T00:18:34;18.60;99.90
45549;DHT22;31270;48.328;10.096;2022-07-29T00:20:59;18.50;99.90
45549;DHT22;31270;48.328;10.096;2022-07-29T00:23:25;18.60;99.90
45549;DHT22;31270;48.328;10.096;2022-07-29T00:25:50;18.60;99.90
45549;DHT22;31270;48.328;10.096;2022-07-29T00:28:16;18.50;99.90
45549;DHT22;31270;48.328;10.096;2022-07-29T00:30:41;18.50;99.90
45549;DHT22;31270;48.328;10.096;2022-07-29T00:33:08;18.50;99.90
45549;DHT22;31270;48.328;10.096;2022-07-29T00:35:34;18.50;99.90
45549;DHT22;31270;48.328;10.096;2022-07-29T00:38:12;18.50;99.90
45549;DHT22;31270;48.328;10.096;2022-07-29T00:40:39;18.50;99.90
45549;DHT22;31270;48.328;10.096;2022-07-29T00:43:05;18.40;99.90
45549;DHT22;31270;48.328;10.096;2022-07-29T00:45:31;18.30;99.90
45549;DHT22;31270;48.328;10.096;2022-07-29T00:47:57;18.40;99.90
45549;DHT22;31270;48.328;10.096;2022-07-29T00:50:22;18.20;99.90
45549;DHT22;31270;48.328;10.096;2022-07-29T00:52:48;18.20;99.90
45549;DHT22;31270;48.328;10.096;2022-07-29T00:55:15;18.20;99.90
45549;DHT22;31270;48.328;10.096;2022-07-29T00:57:42;18.20;99.90
45549;DHT22;31270;48.328;10.096;2022-07-29T01:00:12;18.20;99.90
45549;DHT22;31270;48.328;10.096;2022-07-29T01:02:38;18.10;99.90
45549;DHT22;31270;48.328;10.096;2022-07-29T01:05:05;18.10;99.90
45549;DHT22;31270;48.328;10.096;2022-07-29T01:07:36;18.00;99.90
45549;DHT22;31270;48.328;10.096;2022-07-29T01:10:06;18.00;99.90
45549;DHT22;31270;48.328;10.096;2022-07-29T01:12:34;18.00;99.90
45549;DHT22;31270;48.328;10.096;2022-07-29T01:15:02;17.80;99.90
45549;DHT22;31270;48.328;10.096;2022-07-29T01:17:36;17.90;99.90
45549;DHT22;31270;48.328;10.096;2022-07-29T01:22:37;18.00;99.90
45549;DHT22;31270;48.328;10.096;2022-07-29T01:27:44;18.00;99.90
45549;DHT22;31270;48.328;10.096;2022-07-29T01:30:12;17.90;99.90
45549;DHT22;31270;48.328;10.096;2022-07-29T01:32:39;18.10;99.90
45549;DHT22;31270;48.328;10.096;2022-07-29T01:35:18;18.10;99.90
45549;DHT22;31270;48.328;10.096;2022-07-29T01:37:55;18.00;99.90
45549;DHT22;31270;48.328;10.096;2022-07-29T01:40:34;18.10;99.90
45549;DHT22;31270;48.328;10.096;2022-07-29T01:43:12;17.90;99.90
45549;DHT22;31270;48.328;10.096;2022-07-29T01:45:55;18.00;99.90
45549;DHT22;31270;48.328;10.096;2022-07-29T01:48:27;18.00;99.90
45549;DHT22;31270;48.328;10.096;2022-07-29T01:51:31;18.00;99.90
45549;DHT22;31270;48.328;10.096;2022-07-29T01:54:14;18.10;99.90
45549;DHT22;31270;48.328;10.096;2022-07-29T01:56:43;18.10;99.90
45549;DHT22;31270;48.328;10.096;2022-07-29T01:59:10;18.20;99.90
45549;DHT22;31270;48.328;10.096;2022-07-29T02:01:37;18.10;99.90
45549;DHT22;31270;48.328;10.096;2022-07-29T02:04:06;18.00;99.90
45549;DHT22;31270;48.328;10.096;2022-07-29T02:06:35;18.00;99.90
45549;DHT22;31270;48.328;10.096;2022-07-29T02:09:03;18.10;99.90
45549;DHT22;31270;48.328;10.096;2022-07-29T02:11:32;18.10;99.90
45549;DHT22;31270;48.328;10.096;2022-07-29T02:14:00;18.00;99.90
45549;DHT22;31270;48.328;10.096;2022-07-29T02:16:28;18.10;99.90
45549;DHT22;31270;48.328;10.096;2022-07-29T02:18:55;18.00;99.90
45549;DHT22;31270;48.328;10.096;2022-07-29T02:21:24;18.00;99.90
45549;DHT22;31270;48.328;10.096;2022-07-29T02:23:52;17.80;99.90
45549;DHT22;31270;48.328;10.096;2022-07-29T02:26:20;17.90;99.90
45549;DHT22;31270;48.328;10.096;2022-07-29T02:28:48;17.80;99.90
45549;DHT22;31270;48.328;10.096;2022-07-29T02:31:15;17.90;99.90
45549;DHT22;31270;48.328;10.096;2022-07-29T02:33:43;17.80;99.90
45549;DHT22;31270;48.328;10.096;2022-07-29T02:36:09;17.80;99.90
45549;DHT22;31270;48.328;10.096;2022-07-29T02:38:36;17.80;99.90
45549;DHT22;31270;48.328;10.096;2022-07-29T02:41:20;17.70;99.90
45549;DHT22;31270;48.328;10.096;2022-07-29T02:43:48;17.80;99.90
45549;DHT22;31270;48.328;10.096;2022-07-29T02:46:19;17.90;99.90
45549;DHT22;31270;48.328;10.096;2022-07-29T02:48:53;17.80;99.90
45549;DHT22;31270;48.328;10.096;2022-07-29T02:51:26;17.80;99.90
45549;DHT22;31270;48.328;10.096;2022-07-29T02:53:54;17.80;99.90
45549;DHT22;31270;48.328;10.096;2022-07-29T02:56:27;17.70;99.90
45549;DHT22;31270;48.328;10.096;2022-07-29T02:58:58;17.70;99.90
45549;DHT22;31270;48.328;10.096;2022-07-29T03:01:25;17.70;99.90
45549;DHT22;31270;48.328;10.096;2022-07-29T03:03:54;17.60;99.90
45549;DHT22;31270;48.328;10.096;2022-07-29T03:06:25;17.60;99.90
45549;DHT22;31270;48.328;10.096;2022-07-29T03:08:52;17.50;99.90
45549;DHT22;31270;48.328;10.096;2022-07-29T03:11:19;17.50;99.90
45549;DHT22;31270;48.328;10.096;2022-07-29T03:13:45;17.50;99.90
45549;DHT22;31270;48.328;10.096;2022-07-29T03:16:11;17.50;99.90
45549;DHT22;31270;48.328;10.096;2022-07-29T03:18:38;17.50;99.90
45549;DHT22;31270;48.328;10.096;2022-07-29T03:21:04;17.50;99.90
45549;DHT22;31270;48.328;10.096;2022-07-29T03:23:30;17.40;99.90
45549;DHT22;31270;48.328;10.096;2022-07-29T03:25:56;17.30;99.90
45549;DHT22;31270;48.328;10.096;2022-07-29T03:28:22;17.40;99.90
45549;DHT22;31270;48.328;10.096;2022-07-29T03:30:49;17.20;99.90
45549;DHT22;31270;48.328;10.096;2022-07-29T03:33:15;17.20;99.90
45549;DHT22;31270;48.328;10.096;2022-07-29T03:35:41;17.20;99.90
45549;DHT22;31270;48.328;10.096;2022-07-29T03:38:07;17.10;99.90
45549;DHT22;31270;48.328;10.096;2022-07-29T03:40:40;17.10;99.90
45549;DHT22;31270;48.328;10.096;2022-07-29T03:43:10;17.10;99.90
45549;DHT22;31270;48.328;10.096;2022-07-29T03:45:37;17.00;99.90
45549;DHT22;31270;48.328;10.096;2022-07-29T03:48:10;17.00;99.90
45549;DHT22;31270;48.328;10.096;2022-07-29T03:50:38;17.10;99.90
45549;DHT22;31270;48.328;10.096;2022-07-29T03:53:03;16.90;99.90
45549;DHT22;31270;48.328;10.096;2022-07-29T03:55:33;16.90;99.90
45549;DHT22;31270;48.328;10.096;2022-07-29T03:58:02;16.80;99.90
45549;DHT22;31270;48.328;10.096;2022-07-29T04:00:28;16.70;99.90
45549;DHT22;31270;48.328;10.096;2022-07-29T04:02:56;16.80;99.90
45549;DHT22;31270;48.328;10.096;2022-07-29T04:05:21;16.70;99.90
45549;DHT22;31270;48.328;10.096;2022-07-29T04:07:48;16.70;99.90
45549;DHT22;31270;48.328;10.096;2022-07-29T04:10:14;16.70;99.90
45549;DHT22;31270;48.328;10.096;2022-07-29T04:12:41;16.70;99.90
45549;DHT22;31270;48.328;10.096;2022-07-29T04:15:07;16.80;99.90
45549;DHT22;31270;48.328;10.096;2022-07-29T04:17:33;16.70;99.90
45549;DHT22;31270;48.328;10.096;2022-07-29T04:19:58;16.70;99.90
45549;DHT22;31270;48.328;10.096;2022-07-29T04:22:24;16.60;99.90
45549;DHT22;31270;48.328;10.096;2022-07-29T04:24:50;16.60;99.90
45549;DHT22;31270;48.328;10.096;2022-07-29T04:27:15;16.50;99.90
45549;DHT22;31270;48.328;10.096;2022-07-29T04:29:41;16.60;99.90
45549;DHT22;31270;48.328;10.096;2022-07-29T04:32:06;16.70;99.90
45549;DHT22;31270;48.328;10.096;2022-07-29T04:34:32;16.80;99.90
45549;DHT22;31270;48.328;10.096;2022-07-29T04:36:58;16.80;99.90
45549;DHT22;31270;48.328;10.096;2022-07-29T04:39:24;16.90;99.90
45549;DHT22;31270;48.328;10.096;2022-07-29T04:41:50;16.90;99.90
45549;DHT22;31270;48.328;10.096;2022-07-29T04:44:15;16.90;99.90
45549;DHT22;31270;48.328;10.096;2022-07-29T04:46:41;17.00;99.90
45549;DHT22;31270;48.328;10.096;2022-07-29T04:49:07;17.10;99.90
45549;DHT22;31270;48.328;10.096;2022-07-29T04:51:33;17.20;99.90
45549;DHT22;31270;48.328;10.096;2022-07-29T04:53:59;17.30;99.90
45549;DHT22;31270;48.328;10.096;2022-07-29T04:56:24;17.30;99.90
45549;DHT22;31270;48.328;10.096;2022-07-29T04:58:50;17.40;99.90
45549;DHT22;31270;48.328;10.096;2022-07-29T05:01:16;17.50;99.90
45549;DHT22;31270;48.328;10.096;2022-07-29T05:03:41;17.50;99.90
45549;DHT22;31270;48.328;10.096;2022-07-29T05:06:07;17.60;99.90
45549;DHT22;31270;48.328;10.096;2022-07-29T05:08:33;17.60;99.90
45549;DHT22;31270;48.328;10.096;2022-07-29T05:10:58;17.80;99.90
45549;DHT22;31270;48.328;10.096;2022-07-29T05:13:24;17.60;99.90
45549;DHT22;31270;48.328;10.096;2022-07-29T05:15:49;17.70;99.90
45549;DHT22;31270;48.328;10.096;2022-07-29T05:18:15;17.80;99.90
45549;DHT22;31270;48.328;10.096;2022-07-29T05:20:41;17.80;99.90
45549;DHT22;31270;48.328;10.096;2022-07-29T05:23:06;17.80;99.90
45549;DHT22;31270;48.328;10.096;2022-07-29T05:25:32;17.70;99.90
45549;DHT22;31270;48.328;10.096;2022-07-29T05:27:58;17.70;99.90
45549;DHT22;31270;48.328;10.096;2022-07-29T05:30:24;17.90;99.90
45549;DHT22;31270;48.328;10.096;2022-07-29T05:32:50;17.90;99.90
45549;DHT22;31270;48.328;10.096;2022-07-29T05:35:16;18.00;99.90
45549;DHT22;31270;48.328;10.096;2022-07-29T05:37:41;18.10;99.90
45549;DHT22;31270;48.328;10.096;2022-07-29T05:40:08;18.20;99.90
45549;DHT22;31270;48.328;10.096;2022-07-29T05:42:34;18.30;99.90
45549;DHT22;31270;48.328;10.096;2022-07-29T05:45:00;18.40;99.90
45549;DHT22;31270;48.328;10.096;2022-07-29T05:47:25;18.40;99.90
45549;DHT22;31270;48.328;10.096;2022-07-29T05:49:51;18.60;99.90
45549;DHT22;31270;48.328;10.096;2022-07-29T05:52:17;18.80;99.90
45549;DHT22;31270;48.328;10.096;2022-07-29T05:54:43;18.80;99.90
45549;DHT22;31270;48.328;10.096;2022-07-29T05:57:14;18.90;99.90
45549;DHT22;31270;48.328;10.096;2022-07-29T05:59:40;19.10;99.90
45549;DHT22;31270;48.328;10.096;2022-07-29T06:02:05;19.10;99.90
45549;DHT22;31270;48.328;10.096;2022-07-29T06:04:32;19.30;99.90
45549;DHT22;31270;48.328;10.096;2022-07-29T06:06:58;19.20;99.90
45549;DHT22;31270;48.328;10.096;2022-07-29T06:09:24;19.20;99.90
45549;DHT22;31270;48.328;10.096;2022-07-29T06:11:49;19.20;99.90
45549;DHT22;31270;48.328;10.096;2022-07-29T06:14:15;19.30;99.90
45549;DHT22;31270;48.328;10.096;2022-07-29T06:16:41;19.40;99.90
45549;DHT22;31270;48.328;10.096;2022-07-29T06:19:07;19.40;99.90
45549;DHT22;31270;48.328;10.096;2022-07-29T06:21:33;19.30;99.90
45549;DHT22;31270;48.328;10.096;2022-07-29T06:23:59;19.30;99.90
45549;DHT22;31270;48.328;10.096;2022-07-29T06:26:25;19.40;99.90
45549;DHT22;31270;48.328;10.096;2022-07-29T06:28:50;19.40;99.90
45549;DHT22;31270;48.328;10.096;2022-07-29T06:31:16;19.60;99.90
45549;DHT22;31270;48.328;10.096;2022-07-29T06:33:42;19.80;99.90
45549;DHT22;31270;48.328;10.096;2022-07-29T06:36:07;19.80;99.90
45549;DHT22;31270;48.328;10.096;2022-07-29T06:38:33;20.00;99.90
45549;DHT22;31270;48.328;10.096;2022-07-29T06:40:59;20.00;99.90
45549;DHT22;31270;48.328;10.096;2022-07-29T06:43:41;20.10;99.90
45549;DHT22;31270;48.328;10.096;2022-07-29T06:46:14;20.30;99.90
45549;DHT22;31270;48.328;10.096;2022-07-29T06:48:41;20.40;99.90
45549;DHT22;31270;48.328;10.096;2022-07-29T06:51:09;20.40;99.90
45549;DHT22;31270;48.328;10.096;2022-07-29T06:53:35;20.50;99.90
45549;DHT22;31270;48.328;10.096;2022-07-29T06:56:02;20.30;99.90
45549;DHT22;31270;48.328;10.096;2022-07-29T06:58:29;20.20;99.90
45549;DHT22;31270;48.328;10.096;2022-07-29T07:01:00;20.30;99.90
45549;DHT22;31270;48.328;10.096;2022-07-29T07:03:26;20.40;99.90
45549;DHT22;31270;48.328;10.096;2022-07-29T07:05:53;20.20;99.90
45549;DHT22;31270;48.328;10.096;2022-07-29T07:08:19;20.30;99.90
45549;DHT22;31270;48.328;10.096;2022-07-29T07:10:45;20.20;99.90
45549;DHT22;31270;48.328;10.096;2022-07-29T07:13:11;20.40;99.90
45549;DHT22;31270;48.328;10.096;2022-07-29T07:15:37;20.20;99.90
45549;DHT22;31270;48.328;10.096;2022-07-29T07:18:03;20.20;99.90
45549;DHT22;31270;48.328;10.096;2022-07-29T07:20:29;20.30;99.90
45549;DHT22;31270;48.328;10.096;2022-07-29T07:22:55;20.30;99.90
45549;DHT22;31270;48.328;10.096;2022-07-29T07:25:20;20.40;99.90
45549;DHT22;31270;48.328;10.096;2022-07-29T07:27:46;20.40;99.90
45549;DHT22;31270;48.328;10.096;2022-07-29T07:30:12;20.40;99.90
45549;DHT22;31270;48.328;10.096;2022-07-29T07:32:38;20.50;99.90
45549;DHT22;31270;48.328;10.096;2022-07-29T07:35:05;20.70;99.90
45549;DHT22;31270;48.328;10.096;2022-07-29T07:37:31;20.90;99.90
45549;DHT22;31270;48.328;10.096;2022-07-29T07:39:57;21.00;99.90
45549;DHT22;31270;48.328;10.096;2022-07-29T07:42:23;20.90;99.90
45549;DHT22;31270;48.328;10.096;2022-07-29T07:44:49;20.90;99.90
45549;DHT22;31270;48.328;10.096;2022-07-29T07:47:15;20.90;99.90
45549;DHT22;31270;48.328;10.096;2022-07-29T07:49:48;21.00;99.90
45549;DHT22;31270;48.328;10.096;2022-07-29T07:52:15;21.10;99.90
45549;DHT22;31270;48.328;10.096;2022-07-29T07:54:41;21.10;99.90
45549;DHT22;31270;48.328;10.096;2022-07-29T07:57:08;21.10;99.90
45549;DHT22;31270;48.328;10.096;2022-07-29T07:59:33;21.00;99.90
45549;DHT22;31270;48.328;10.096;2022-07-29T08:01:59;21.10;99.90
45549;DHT22;31270;48.328;10.096;2022-07-29T08:04:26;21.30;99.90
45549;DHT22;31270;48.328;10.096;2022-07-29T08:06:52;21.40;99.90
45549;DHT22;31270;48.328;10.096;2022-07-29T08:09:20;21.40;99.90
45549;DHT22;31270;48.328;10.096;2022-07-29T08:11:46;21.60;99.90
45549;DHT22;31270;48.328;10.096;2022-07-29T08:14:11;21.80;99.90
45549;DHT22;31270;48.328;10.096;2022-07-29T08:16:39;22.00;99.90
45549;DHT22;31270;48.328;10.096;2022-07-29T08:19:05;22.00;99.90
45549;DHT22;31270;48.328;10.096;2022-07-29T08:21:30;22.30;99.90
45549;DHT22;31270;48.328;10.096;2022-07-29T08:23:56;22.50;99.90
45549;DHT22;31270;48.328;10.096;2022-07-29T08:26:43;22.70;99.90
45549;DHT22;31270;48.328;10.096;2022-07-29T08:29:08;23.00;99.90
45549;DHT22;31270;48.328;10.096;2022-07-29T08:31:36;23.20;99.90
45549;DHT22;31270;48.328;10.096;2022-07-29T08:34:02;23.30;99.90
45549;DHT22;31270;48.328;10.096;2022-07-29T08:36:29;23.50;99.90
45549;DHT22;31270;48.328;10.096;2022-07-29T08:38:55;23.50;99.90
45549;DHT22;31270;48.328;10.096;2022-07-29T08:41:21;23.60;99.90
45549;DHT22;31270;48.328;10.096;2022-07-29T08:43:48;23.70;99.90
45549;DHT22;31270;48.328;10.096;2022-07-29T08:46:15;23.80;99.90
45549;DHT22;31270;48.328;10.096;2022-07-29T08:48:41;24.00;99.90
45549;DHT22;31270;48.328;10.096;2022-07-29T08:51:07;24.20;99.90
45549;DHT22;31270;48.328;10.096;2022-07-29T08:53:34;24.50;99.90
45549;DHT22;31270;48.328;10.096;2022-07-29T08:56:00;24.80;99.90
45549;DHT22;31270;48.328;10.096;2022-07-29T08:58:31;25.10;99.90
45549;DHT22;31270;48.328;10.096;2022-07-29T09:00:58;25.20;99.90
45549;DHT22;31270;48.328;10.096;2022-07-29T09:03:30;25.20;99.90
45549;DHT22;31270;48.328;10.096;2022-07-29T09:06:01;25.30;99.90
45549;DHT22;31270;48.328;10.096;2022-07-29T09:08:27;25.40;99.90
45549;DHT22;31270;48.328;10.096;2022-07-29T09:10:55;25.60;99.90
45549;DHT22;31270;48.328;10.096;2022-07-29T09:13:22;25.60;99.90
45549;DHT22;31270;48.328;10.096;2022-07-29T09:15:48;25.90;99.90
45549;DHT22;31270;48.328;10.096;2022-07-29T09:21:17;25.80;99.90
45549;DHT22;31270;48.328;10.096;2022-07-29T09:24:08;25.80;99.90
45549;DHT22;31270;48.328;10.096;2022-07-29T09:26:40;26.00;99.90
45549;DHT22;31270;48.328;10.096;2022-07-29T09:29:14;26.00;99.90
45549;DHT22;31270;48.328;10.096;2022-07-29T09:31:49;25.90;99.90
45549;DHT22;31270;48.328;10.096;2022-07-29T09:34:17;25.80;99.90
45549;DHT22;31270;48.328;10.096;2022-07-29T09:36:48;26.10;99.90
45549;DHT22;31270;48.328;10.096;2022-07-29T09:39:15;26.30;99.90
45549;DHT22;31270;48.328;10.096;2022-07-29T09:41:49;26.50;99.90
45549;DHT22;31270;48.328;10.096;2022-07-29T09:44:15;26.60;99.90
45549;DHT22;31270;48.328;10.096;2022-07-29T09:47:01;26.60;99.90
45549;DHT22;31270;48.328;10.096;2022-07-29T09:49:35;26.60;99.90
45549;DHT22;31270;48.328;10.096;2022-07-29T09:54:30;26.30;99.90
45549;DHT22;31270;48.328;10.096;2022-07-29T09:57:03;26.20;99.90
45549;DHT22;31270;48.328;10.096;2022-07-29T09:59:29;26.10;99.90
45549;DHT22;31270;48.328;10.096;2022-07-29T10:01:56;26.10;99.90
45549;DHT22;31270;48.328;10.096;2022-07-29T10:04:22;26.20;99.90
45549;DHT22;31270;48.328;10.096;2022-07-29T10:06:58;26.40;99.90
45549;DHT22;31270;48.328;10.096;2022-07-29T10:09:25;26.10;99.90
45549;DHT22;31270;48.328;10.096;2022-07-29T10:12:23;26.30;99.90
45549;DHT22;31270;48.328;10.096;2022-07-29T10:14:49;26.40;99.90
45549;DHT22;31270;48.328;10.096;2022-07-29T10:17:16;26.40;99.90
45549;DHT22;31270;48.328;10.096;2022-07-29T10:19:42;26.60;99.90
45549;DHT22;31270;48.328;10.096;2022-07-29T10:22:09;26.40;99.90
45549;DHT22;31270;48.328;10.096;2022-07-29T10:24:36;26.20;99.90
45549;DHT22;31270;48.328;10.096;2022-07-29T10:27:04;26.30;99.90
45549;DHT22;31270;48.328;10.096;2022-07-29T10:29:31;26.40;99.90
45549;DHT22;31270;48.328;10.096;2022-07-29T10:35:19;26.20;99.90
45549;DHT22;31270;48.328;10.096;2022-07-29T10:40:51;26.20;99.90
45549;DHT22;31270;48.328;10.096;2022-07-29T10:43:43;26.00;99.90
45549;DHT22;31270;48.328;10.096;2022-07-29T10:46:10;25.90;99.90
45549;DHT22;31270;48.328;10.096;2022-07-29T10:52:02;25.70;99.90
45549;DHT22;31270;48.328;10.096;2022-07-29T10:57:20;25.60;99.90
45549;DHT22;31270;48.328;10.096;2022-07-29T10:59:51;25.50;99.90
45549;DHT22;31270;48.328;10.096;2022-07-29T11:07:29;25.60;99.90
45549;DHT22;31270;48.328;10.096;2022-07-29T11:15:19;26.10;99.90
45549;DHT22;31270;48.328;10.096;2022-07-29T11:20:39;26.40;99.90
45549;DHT22;31270;48.328;10.096;2022-07-29T11:29:02;26.50;99.90
45549;DHT22;31270;48.328;10.096;2022-07-29T11:31:43;26.50;99.90
45549;DHT22;31270;48.328;10.096;2022-07-29T11:34:25;26.70;99.90
45549;DHT22;31270;48.328;10.096;2022-07-29T11:45:04;26.80;99.90
45549;DHT22;31270;48.328;10.096;2022-07-29T11:47:41;26.80;99.90
45549;DHT22;31270;48.328;10.096;2022-07-29T11:50:12;26.60;99.90
45549;DHT22;31270;48.328;10.096;2022-07-29T11:52:47;26.50;99.90
45549;DHT22;31270;48.328;10.096;2022-07-29T11:55:21;26.40;99.90
45549;DHT22;31270;48.328;10.096;2022-07-29T12:02:50;25.80;99.90
45549;DHT22;31270;48.328;10.096;2022-07-29T12:05:16;25.90;99.90
45549;DHT22;31270;48.328;10.096;2022-07-29T12:07:42;25.80;99.90
45549;DHT22;31270;48.328;10.096;2022-07-29T12:10:08;25.80;99.90
45549;DHT22;31270;48.328;10.096;2022-07-29T12:12:52;25.90;99.90
45549;DHT22;31270;48.328;10.096;2022-07-29T12:18:40;26.00;99.90
45549;DHT22;31270;48.328;10.096;2022-07-29T12:21:06;26.00;99.90
45549;DHT22;31270;48.328;10.096;2022-07-29T12:23:33;25.80;99.90
45549;DHT22;31270;48.328;10.096;2022-07-29T12:25:59;25.60;99.90
45549;DHT22;31270;48.328;10.096;2022-07-29T12:28:25;25.30;99.90
45549;DHT22;31270;48.328;10.096;2022-07-29T12:30:51;25.30;99.90
45549;DHT22;31270;48.328;10.096;2022-07-29T12:33:21;25.40;99.90
45549;DHT22;31270;48.328;10.096;2022-07-29T12:35:55;25.70;99.90
45549;DHT22;31270;48.328;10.096;2022-07-29T12:38:22;25.90;99.90
45549;DHT22;31270;48.328;10.096;2022-07-29T12:40:48;26.40;99.90
45549;DHT22;31270;48.328;10.096;2022-07-29T12:43:26;26.80;99.90
45549;DHT22;31270;48.328;10.096;2022-07-29T12:45:53;27.20;99.90
45549;DHT22;31270;48.328;10.096;2022-07-29T12:48:34;27.50;99.90
45549;DHT22;31270;48.328;10.096;2022-07-29T12:51:01;27.80;99.90
45549;DHT22;31270;48.328;10.096;2022-07-29T12:53:27;27.80;99.90
45549;DHT22;31270;48.328;10.096;2022-07-29T12:55:54;28.10;99.90
45549;DHT22;31270;48.328;10.096;2022-07-29T12:58:33;28.30;99.90
45549;DHT22;31270;48.328;10.096;2022-07-29T13:01:11;28.60;99.90
45549;DHT22;31270;48.328;10.096;2022-07-29T13:03:56;29.00;99.90
45549;DHT22;31270;48.328;10.096;2022-07-29T13:06:42;29.60;99.90
45549;DHT22;31270;48.328;10.096;2022-07-29T13:09:12;30.00;99.90
45549;DHT22;31270;48.328;10.096;2022-07-29T13:11:47;30.10;99.90
45549;DHT22;31270;48.328;10.096;2022-07-29T13:14:31;30.30;99.90
45549;DHT22;31270;48.328;10.096;2022-07-29T13:17:03;30.60;99.90
45549;DHT22;31270;48.328;10.096;2022-07-29T13:19:46;30.70;99.90
45549;DHT22;31270;48.328;10.096;2022-07-29T13:22:14;30.60;99.90
45549;DHT22;31270;48.328;10.096;2022-07-29T13:27:18;30.80;99.90
45549;DHT22;31270;48.328;10.096;2022-07-29T13:29:44;30.70;99.90
45549;DHT22;31270;48.328;10.096;2022-07-29T13:32:09;30.70;99.90
45549;DHT22;31270;48.328;10.096;2022-07-29T13:34:35;30.60;99.90
45549;DHT22;31270;48.328;10.096;2022-07-29T13:37:00;30.60;99.90
45549;DHT22;31270;48.328;10.096;2022-07-29T13:39:26;30.40;99.90
45549;DHT22;31270;48.328;10.096;2022-07-29T13:41:52;30.50;99.90
45549;DHT22;31270;48.328;10.096;2022-07-29T13:44:17;30.40;99.90
45549;DHT22;31270;48.328;10.096;2022-07-29T13:46:43;30.70;99.90
45549;DHT22;31270;48.328;10.096;2022-07-29T13:49:09;30.70;97.80
45549;DHT22;31270;48.328;10.096;2022-07-29T13:51:36;30.80;97.50
45549;DHT22;31270;48.328;10.096;2022-07-29T13:54:02;31.00;95.60
45549;DHT22;31270;48.328;10.096;2022-07-29T13:56:27;30.20;98.40
45549;DHT22;31270;48.328;10.096;2022-07-29T13:58:53;29.40;99.20
45549;DHT22;31270;48.328;10.096;2022-07-29T14:01:19;28.30;99.30
45549;DHT22;31270;48.328;10.096;2022-07-29T14:03:44;27.70;99.90
45549;DHT22;31270;48.328;10.096;2022-07-29T14:06:10;27.30;99.90
45549;DHT22;31270;48.328;10.096;2022-07-29T14:08:36;26.90;99.40
45549;DHT22;31270;48.328;10.096;2022-07-29T14:11:01;26.50;99.90
45549;DHT22;31270;48.328;10.096;2022-07-29T14:13:27;26.40;99.90
45549;DHT22;31270;48.328;10.096;2022-07-29T14:15:53;26.20;99.90
45549;DHT22;31270;48.328;10.096;2022-07-29T14:18:18;26.00;99.90
45549;DHT22;31270;48.328;10.096;2022-07-29T14:20:44;25.90;99.90
45549;DHT22;31270;48.328;10.096;2022-07-29T14:23:10;25.90;99.90
45549;DHT22;31270;48.328;10.096;2022-07-29T14:25:35;25.80;99.90
45549;DHT22;31270;48.328;10.096;2022-07-29T14:28:01;25.70;99.90
45549;DHT22;31270;48.328;10.096;2022-07-29T14:30:27;25.40;99.90
45549;DHT22;31270;48.328;10.096;2022-07-29T14:32:52;25.00;99.90
45549;DHT22;31270;48.328;10.096;2022-07-29T14:35:18;24.60;99.90
45549;DHT22;31270;48.328;10.096;2022-07-29T14:37:44;24.00;99.90
45549;DHT22;31270;48.328;10.096;2022-07-29T14:40:10;23.80;99.90
45549;DHT22;31270;48.328;10.096;2022-07-29T14:42:36;23.60;99.90
45549;DHT22;31270;48.328;10.096;2022-07-29T14:45:06;23.50;99.90
45549;DHT22;31270;48.328;10.096;2022-07-29T14:47:32;23.20;99.90
45549;DHT22;31270;48.328;10.096;2022-07-29T14:49:58;23.10;99.90
45549;DHT22;31270;48.328;10.096;2022-07-29T14:52:24;23.10;99.90
45549;DHT22;31270;48.328;10.096;2022-07-29T14:54:49;23.00;99.90
45549;DHT22;31270;48.328;10.096;2022-07-29T14:57:15;22.80;99.90
45549;DHT22;31270;48.328;10.096;2022-07-29T14:59:41;22.80;99.90
45549;DHT22;31270;48.328;10.096;2022-07-29T15:02:07;22.30;99.90
45549;DHT22;31270;48.328;10.096;2022-07-29T15:04:33;22.20;99.90
45549;DHT22;31270;48.328;10.096;2022-07-29T15:06:58;21.50;99.90
45549;DHT22;31270;48.328;10.096;2022-07-29T15:09:24;21.10;99.90
45549;DHT22;31270;48.328;10.096;2022-07-29T15:11:50;20.80;99.90
45549;DHT22;31270;48.328;10.096;2022-07-29T15:14:15;20.70;99.90
45549;DHT22;31270;48.328;10.096;2022-07-29T15:16:41;20.50;99.90
45549;DHT22;31270;48.328;10.096;2022-07-29T15:19:08;20.40;99.90
45549;DHT22;31270;48.328;10.096;2022-07-29T15:21:34;20.30;99.90
45549;DHT22;31270;48.328;10.096;2022-07-29T15:23:59;20.10;99.90
45549;DHT22;31270;48.328;10.096;2022-07-29T15:26:25;20.00;99.90
45549;DHT22;31270;48.328;10.096;2022-07-29T15:28:51;19.90;99.90
45549;DHT22;31270;48.328;10.096;2022-07-29T15:31:17;19.80;99.90
45549;DHT22;31270;48.328;10.096;2022-07-29T15:33:44;19.70;99.90
45549;DHT22;31270;48.328;10.096;2022-07-29T15:36:10;19.60;99.90
45549;DHT22;31270;48.328;10.096;2022-07-29T15:38:37;19.50;99.90
45549;DHT22;31270;48.328;10.096;2022-07-29T15:41:03;19.20;99.90
45549;DHT22;31270;48.328;10.096;2022-07-29T15:43:28;19.10;99.90
45549;DHT22;31270;48.328;10.096;2022-07-29T15:45:54;19.20;99.90
45549;DHT22;31270;48.328;10.096;2022-07-29T15:48:38;19.10;99.90
45549;DHT22;31270;48.328;10.096;2022-07-29T15:51:04;19.10;99.90
45549;DHT22;31270;48.328;10.096;2022-07-29T15:53:29;19.10;99.90
45549;DHT22;31270;48.328;10.096;2022-07-29T15:55:55;19.10;99.90
45549;DHT22;31270;48.328;10.096;2022-07-29T15:58:21;19.10;99.90
45549;DHT22;31270;48.328;10.096;2022-07-29T16:00:47;19.10;99.90
45549;DHT22;31270;48.328;10.096;2022-07-29T16:03:13;19.20;99.90
45549;DHT22;31270;48.328;10.096;2022-07-29T16:05:39;19.10;99.90
45549;DHT22;31270;48.328;10.096;2022-07-29T16:08:05;19.30;99.90
45549;DHT22;31270;48.328;10.096;2022-07-29T16:10:30;19.50;99.90
45549;DHT22;31270;48.328;10.096;2022-07-29T16:12:56;19.40;99.90
45549;DHT22;31270;48.328;10.096;2022-07-29T16:15:21;19.30;99.90
45549;DHT22;31270;48.328;10.096;2022-07-29T16:17:47;19.20;99.90
45549;DHT22;31270;48.328;10.096;2022-07-29T16:20:15;19.20;99.90
45549;DHT22;31270;48.328;10.096;2022-07-29T16:22:41;19.20;99.90